sensor_id;sensor_type;location;lat;lon;timestamp;P1;durP1;ratioP1;P2;durP2;ratioP2
77701;SDS011;66868;42.708;23.404;2023-03-24T00:02:17;15.38;;;11.52;;
77701;SDS011;66868;42.708;23.404;2023-03-24T00:04:46;15.32;;;12.00;;
77701;SDS011;66868;42.708;23.404;2023-03-24T00:07:14;18.48;;;12.48;;
77701;SDS011;66868;42.708;23.404;2023-03-24T00:09:46;14.73;;;11.23;;
77701;SDS011;66868;42.708;23.404;2023-03-24T00:12:32;18.45;;;11.60;;
77701;SDS011;66868;42.708;23.404;2023-03-24T00:15:17;16.05;;;11.15;;
77701;SDS011;66868;42.708;23.404;2023-03-24T00:17:45;18.20;;;12.75;;
77701;SDS011;66868;42.708;23.404;2023-03-24T00:20:14;24.08;;;13.45;;
77701;SDS011;66868;42.708;23.404;2023-03-24T00:22:44;18.58;;;12.50;;
77701;SDS011;66868;42.708;23.404;2023-03-24T00:25:22;16.83;;;12.30;;
77701;SDS011;66868;42.708;23.404;2023-03-24T00:27:54;19.60;;;12.57;;
77701;SDS011;66868;42.708;23.404;2023-03-24T00:30:22;16.92;;;12.25;;
77701;SDS011;66868;42.708;23.404;2023-03-24T00:32:49;14.82;;;11.50;;
77701;SDS011;66868;42.708;23.404;2023-03-24T00:35:15;15.52;;;11.30;;
77701;SDS011;66868;42.708;23.404;2023-03-24T00:37:42;17.38;;;13.25;;
77701;SDS011;66868;42.708;23.404;2023-03-24T00:40:10;32.88;;;18.60;;
77701;SDS011;66868;42.708;23.404;2023-03-24T00:42:39;28.17;;;18.00;;
77701;SDS011;66868;42.708;23.404;2023-03-24T00:45:05;32.25;;;19.52;;
77701;SDS011;66868;42.708;23.404;2023-03-24T00:47:33;29.55;;;19.20;;
77701;SDS011;66868;42.708;23.404;2023-03-24T00:50:06;30.13;;;19.60;;
77701;SDS011;66868;42.708;23.404;2023-03-24T00:52:34;25.33;;;16.30;;
77701;SDS011;66868;42.708;23.404;2023-03-24T00:55:00;19.00;;;13.93;;
77701;SDS011;66868;42.708;23.404;2023-03-24T00:57:27;18.50;;;13.63;;
77701;SDS011;66868;42.708;23.404;2023-03-24T00:59:58;19.60;;;13.57;;
77701;SDS011;66868;42.708;23.404;2023-03-24T01:02:31;19.50;;;13.48;;
77701;SDS011;66868;42.708;23.404;2023-03-24T01:04:58;23.42;;;15.00;;
77701;SDS011;66868;42.708;23.404;2023-03-24T01:07:26;27.00;;;16.65;;
77701;SDS011;66868;42.708;23.404;2023-03-24T01:09:54;23.55;;;16.13;;
77701;SDS011;66868;42.708;23.404;2023-03-24T01:14:49;28.38;;;19.30;;
77701;SDS011;66868;42.708;23.404;2023-03-24T01:17:15;23.50;;;15.85;;
77701;SDS011;66868;42.708;23.404;2023-03-24T01:19:40;43.38;;;24.10;;
77701;SDS011;66868;42.708;23.404;2023-03-24T01:22:06;36.67;;;22.08;;
77701;SDS011;66868;42.708;23.404;2023-03-24T01:24:32;43.15;;;23.13;;
77701;SDS011;66868;42.708;23.404;2023-03-24T01:26:58;45.37;;;24.23;;
77701;SDS011;66868;42.708;23.404;2023-03-24T01:29:23;41.33;;;23.73;;
77701;SDS011;66868;42.708;23.404;2023-03-24T01:31:48;43.65;;;23.60;;
77701;SDS011;66868;42.708;23.404;2023-03-24T01:34:14;41.37;;;22.57;;
77701;SDS011;66868;42.708;23.404;2023-03-24T01:36:40;41.83;;;23.17;;
77701;SDS011;66868;42.708;23.404;2023-03-24T01:39:05;37.53;;;21.17;;
77701;SDS011;66868;42.708;23.404;2023-03-24T01:41:35;43.78;;;23.52;;
77701;SDS011;66868;42.708;23.404;2023-03-24T01:44:22;41.70;;;22.37;;
77701;SDS011;66868;42.708;23.404;2023-03-24T01:46:49;50.28;;;22.45;;
77701;SDS011;66868;42.708;23.404;2023-03-24T01:49:15;42.07;;;21.93;;
77701;SDS011;66868;42.708;23.404;2023-03-24T01:51:42;42.90;;;23.23;;
77701;SDS011;66868;42.708;23.404;2023-03-24T01:54:22;39.60;;;22.33;;
77701;SDS011;66868;42.708;23.404;2023-03-24T01:56:53;44.27;;;23.57;;
77701;SDS011;66868;42.708;23.404;2023-03-24T01:59:26;37.20;;;21.20;;
77701;SDS011;66868;42.708;23.404;2023-03-24T02:01:55;40.40;;;22.27;;
77701;SDS011;66868;42.708;23.404;2023-03-24T02:04:35;47.10;;;22.57;;
77701;SDS011;66868;42.708;23.404;2023-03-24T02:07:12;43.50;;;22.67;;
77701;SDS011;66868;42.708;23.404;2023-03-24T02:09:43;46.20;;;23.47;;
77701;SDS011;66868;42.708;23.404;2023-03-24T02:12:08;35.73;;;20.77;;
77701;SDS011;66868;42.708;23.404;2023-03-24T02:14:34;36.17;;;21.10;;
77701;SDS011;66868;42.708;23.404;2023-03-24T02:28:52;32.50;;;19.73;;
77701;SDS011;66868;42.708;23.404;2023-03-24T02:55:43;40.47;;;21.10;;
77701;SDS011;66868;42.708;23.404;2023-03-24T02:58:30;39.90;;;19.42;;
77701;SDS011;66868;42.708;23.404;2023-03-24T03:01:04;35.63;;;18.77;;
77701;SDS011;66868;42.708;23.404;2023-03-24T03:03:37;37.55;;;18.73;;
77701;SDS011;66868;42.708;23.404;2023-03-24T03:06:06;30.33;;;18.20;;
77701;SDS011;66868;42.708;23.404;2023-03-24T03:08:33;31.70;;;18.00;;
77701;SDS011;66868;42.708;23.404;2023-03-24T03:11:03;34.42;;;18.65;;
77701;SDS011;66868;42.708;23.404;2023-03-24T03:13:38;33.50;;;18.88;;
77701;SDS011;66868;42.708;23.404;2023-03-24T03:16:09;35.00;;;19.30;;
77701;SDS011;66868;42.708;23.404;2023-03-24T03:18:41;34.00;;;19.02;;
77701;SDS011;66868;42.708;23.404;2023-03-24T03:21:14;33.22;;;19.35;;
77701;SDS011;66868;42.708;23.404;2023-03-24T03:23:53;35.33;;;18.57;;
77701;SDS011;66868;42.708;23.404;2023-03-24T03:26:24;33.55;;;20.30;;
77701;SDS011;66868;42.708;23.404;2023-03-24T03:28:55;34.72;;;20.45;;
77701;SDS011;66868;42.708;23.404;2023-03-24T03:31:26;34.03;;;19.80;;
77701;SDS011;66868;42.708;23.404;2023-03-24T03:39:59;39.28;;;22.10;;
77701;SDS011;66868;42.708;23.404;2023-03-24T03:42:29;39.83;;;21.93;;
77701;SDS011;66868;42.708;23.404;2023-03-24T03:44:54;36.53;;;21.80;;
77701;SDS011;66868;42.708;23.404;2023-03-24T03:47:20;41.13;;;22.67;;
77701;SDS011;66868;42.708;23.404;2023-03-24T03:49:47;41.70;;;21.40;;
77701;SDS011;66868;42.708;23.404;2023-03-24T03:52:13;39.23;;;22.47;;
77701;SDS011;66868;42.708;23.404;2023-03-24T03:54:39;48.47;;;24.53;;
77701;SDS011;66868;42.708;23.404;2023-03-24T03:57:07;40.20;;;23.30;;
77701;SDS011;66868;42.708;23.404;2023-03-24T03:59:35;38.80;;;20.75;;
77701;SDS011;66868;42.708;23.404;2023-03-24T04:13:07;44.78;;;21.17;;
77701;SDS011;66868;42.708;23.404;2023-03-24T04:26:42;36.33;;;20.97;;
77701;SDS011;66868;42.708;23.404;2023-03-24T04:29:29;45.50;;;21.27;;
77701;SDS011;66868;42.708;23.404;2023-03-24T04:32:04;46.00;;;22.08;;
77701;SDS011;66868;42.708;23.404;2023-03-24T04:34:43;36.63;;;20.53;;
77701;SDS011;66868;42.708;23.404;2023-03-24T04:37:19;45.77;;;21.83;;
77701;SDS011;66868;42.708;23.404;2023-03-24T04:39:48;34.13;;;20.43;;
77701;SDS011;66868;42.708;23.404;2023-03-24T04:42:23;40.57;;;21.07;;
77701;SDS011;66868;42.708;23.404;2023-03-24T04:44:54;34.20;;;20.07;;
77701;SDS011;66868;42.708;23.404;2023-03-24T04:47:23;35.60;;;20.63;;
77701;SDS011;66868;42.708;23.404;2023-03-24T04:49:58;35.13;;;18.40;;
77701;SDS011;66868;42.708;23.404;2023-03-24T04:52:27;28.73;;;17.10;;
77701;SDS011;66868;42.708;23.404;2023-03-24T04:54:53;33.67;;;18.57;;
77701;SDS011;66868;42.708;23.404;2023-03-24T04:57:18;36.53;;;20.07;;
77701;SDS011;66868;42.708;23.404;2023-03-24T04:59:45;32.03;;;20.60;;
77701;SDS011;66868;42.708;23.404;2023-03-24T05:02:10;37.93;;;23.30;;
77701;SDS011;66868;42.708;23.404;2023-03-24T05:04:35;38.77;;;24.50;;
77701;SDS011;66868;42.708;23.404;2023-03-24T05:07:01;46.73;;;24.07;;
77701;SDS011;66868;42.708;23.404;2023-03-24T05:09:28;45.33;;;26.10;;
77701;SDS011;66868;42.708;23.404;2023-03-24T05:11:55;43.53;;;25.47;;
77701;SDS011;66868;42.708;23.404;2023-03-24T05:14:21;52.33;;;32.37;;
77701;SDS011;66868;42.708;23.404;2023-03-24T05:16:46;44.70;;;27.10;;
77701;SDS011;66868;42.708;23.404;2023-03-24T05:19:12;44.03;;;24.67;;
77701;SDS011;66868;42.708;23.404;2023-03-24T05:21:37;60.00;;;32.70;;
77701;SDS011;66868;42.708;23.404;2023-03-24T05:24:03;59.47;;;32.80;;
77701;SDS011;66868;42.708;23.404;2023-03-24T05:26:29;51.13;;;29.33;;
77701;SDS011;66868;42.708;23.404;2023-03-24T05:28:55;41.07;;;25.63;;
77701;SDS011;66868;42.708;23.404;2023-03-24T05:31:20;42.20;;;23.80;;
77701;SDS011;66868;42.708;23.404;2023-03-24T05:33:46;32.20;;;20.77;;
77701;SDS011;66868;42.708;23.404;2023-03-24T05:36:12;37.83;;;22.10;;
77701;SDS011;66868;42.708;23.404;2023-03-24T05:38:38;32.10;;;19.67;;
77701;SDS011;66868;42.708;23.404;2023-03-24T05:41:04;36.10;;;19.53;;
77701;SDS011;66868;42.708;23.404;2023-03-24T05:43:30;35.67;;;20.53;;
77701;SDS011;66868;42.708;23.404;2023-03-24T05:45:55;32.13;;;19.93;;
77701;SDS011;66868;42.708;23.404;2023-03-24T05:48:21;37.30;;;20.20;;
77701;SDS011;66868;42.708;23.404;2023-03-24T05:50:47;35.63;;;19.65;;
77701;SDS011;66868;42.708;23.404;2023-03-24T05:53:13;30.30;;;19.10;;
77701;SDS011;66868;42.708;23.404;2023-03-24T05:55:38;27.57;;;18.87;;
77701;SDS011;66868;42.708;23.404;2023-03-24T05:58:04;37.33;;;19.25;;
77701;SDS011;66868;42.708;23.404;2023-03-24T06:00:30;34.78;;;18.92;;
77701;SDS011;66868;42.708;23.404;2023-03-24T06:02:56;33.65;;;19.13;;
77701;SDS011;66868;42.708;23.404;2023-03-24T06:05:22;26.58;;;18.33;;
77701;SDS011;66868;42.708;23.404;2023-03-24T06:07:48;29.25;;;17.20;;
77701;SDS011;66868;42.708;23.404;2023-03-24T06:10:13;25.20;;;17.67;;
77701;SDS011;66868;42.708;23.404;2023-03-24T06:12:42;26.08;;;17.52;;
77701;SDS011;66868;42.708;23.404;2023-03-24T06:15:09;29.73;;;18.35;;
77701;SDS011;66868;42.708;23.404;2023-03-24T06:17:34;29.08;;;18.02;;
77701;SDS011;66868;42.708;23.404;2023-03-24T06:20:03;28.25;;;18.08;;
77701;SDS011;66868;42.708;23.404;2023-03-24T06:22:31;29.23;;;17.67;;
77701;SDS011;66868;42.708;23.404;2023-03-24T06:24:57;29.02;;;17.85;;
77701;SDS011;66868;42.708;23.404;2023-03-24T06:27:23;36.28;;;18.58;;
77701;SDS011;66868;42.708;23.404;2023-03-24T06:29:57;29.05;;;17.67;;
77701;SDS011;66868;42.708;23.404;2023-03-24T06:32:23;31.65;;;17.55;;
77701;SDS011;66868;42.708;23.404;2023-03-24T06:34:49;29.85;;;19.42;;
77701;SDS011;66868;42.708;23.404;2023-03-24T06:37:15;34.55;;;18.60;;
77701;SDS011;66868;42.708;23.404;2023-03-24T06:39:40;27.05;;;17.08;;
77701;SDS011;66868;42.708;23.404;2023-03-24T06:42:06;31.45;;;19.23;;
77701;SDS011;66868;42.708;23.404;2023-03-24T06:44:31;30.58;;;18.83;;
77701;SDS011;66868;42.708;23.404;2023-03-24T06:46:57;33.30;;;18.95;;
77701;SDS011;66868;42.708;23.404;2023-03-24T06:49:22;37.67;;;19.40;;
77701;SDS011;66868;42.708;23.404;2023-03-24T06:51:48;33.40;;;19.80;;
77701;SDS011;66868;42.708;23.404;2023-03-24T06:54:13;35.67;;;20.50;;
77701;SDS011;66868;42.708;23.404;2023-03-24T06:56:40;31.13;;;19.33;;
77701;SDS011;66868;42.708;23.404;2023-03-24T06:59:06;36.10;;;20.25;;
77701;SDS011;66868;42.708;23.404;2023-03-24T07:01:32;33.70;;;18.27;;
77701;SDS011;66868;42.708;23.404;2023-03-24T07:03:59;29.60;;;18.23;;
77701;SDS011;66868;42.708;23.404;2023-03-24T07:06:27;26.55;;;17.95;;
77701;SDS011;66868;42.708;23.404;2023-03-24T07:08:54;31.52;;;18.83;;
77701;SDS011;66868;42.708;23.404;2023-03-24T07:11:19;26.42;;;18.38;;
77701;SDS011;66868;42.708;23.404;2023-03-24T07:13:45;28.83;;;17.08;;
77701;SDS011;66868;42.708;23.404;2023-03-24T07:16:10;28.48;;;17.88;;
77701;SDS011;66868;42.708;23.404;2023-03-24T07:18:35;44.28;;;19.02;;
77701;SDS011;66868;42.708;23.404;2023-03-24T07:21:01;40.90;;;20.15;;
77701;SDS011;66868;42.708;23.404;2023-03-24T07:23:26;34.42;;;20.20;;
77701;SDS011;66868;42.708;23.404;2023-03-24T07:25:52;37.58;;;19.65;;
77701;SDS011;66868;42.708;23.404;2023-03-24T07:28:18;34.33;;;20.25;;
77701;SDS011;66868;42.708;23.404;2023-03-24T07:30:44;30.02;;;18.88;;
77701;SDS011;66868;42.708;23.404;2023-03-24T07:33:09;36.88;;;18.48;;
77701;SDS011;66868;42.708;23.404;2023-03-24T07:35:36;29.58;;;19.00;;
77701;SDS011;66868;42.708;23.404;2023-03-24T07:38:02;31.40;;;17.52;;
77701;SDS011;66868;42.708;23.404;2023-03-24T07:40:28;28.08;;;17.00;;
77701;SDS011;66868;42.708;23.404;2023-03-24T07:42:54;28.63;;;17.48;;
77701;SDS011;66868;42.708;23.404;2023-03-24T07:45:24;28.77;;;18.00;;
77701;SDS011;66868;42.708;23.404;2023-03-24T07:47:50;30.33;;;18.70;;
77701;SDS011;66868;42.708;23.404;2023-03-24T07:50:15;26.95;;;17.75;;
77701;SDS011;66868;42.708;23.404;2023-03-24T07:52:41;34.25;;;18.92;;
77701;SDS011;66868;42.708;23.404;2023-03-24T07:55:11;30.40;;;19.17;;
77701;SDS011;66868;42.708;23.404;2023-03-24T07:57:44;42.72;;;19.25;;
77701;SDS011;66868;42.708;23.404;2023-03-24T08:00:11;24.80;;;18.27;;
77701;SDS011;66868;42.708;23.404;2023-03-24T08:02:45;33.03;;;19.70;;
77701;SDS011;66868;42.708;23.404;2023-03-24T08:05:16;32.70;;;20.10;;
77701;SDS011;66868;42.708;23.404;2023-03-24T08:07:44;34.78;;;19.08;;
77701;SDS011;66868;42.708;23.404;2023-03-24T08:10:26;33.90;;;19.10;;
77701;SDS011;66868;42.708;23.404;2023-03-24T08:12:53;31.30;;;18.98;;
77701;SDS011;66868;42.708;23.404;2023-03-24T08:15:19;30.00;;;19.88;;
77701;SDS011;66868;42.708;23.404;2023-03-24T08:17:46;29.90;;;17.42;;
77701;SDS011;66868;42.708;23.404;2023-03-24T08:20:12;39.97;;;20.20;;
77701;SDS011;66868;42.708;23.404;2023-03-24T08:22:39;26.77;;;18.63;;
77701;SDS011;66868;42.708;23.404;2023-03-24T08:25:06;31.67;;;18.08;;
77701;SDS011;66868;42.708;23.404;2023-03-24T08:27:32;25.88;;;17.95;;
77701;SDS011;66868;42.708;23.404;2023-03-24T08:29:58;29.55;;;18.67;;
77701;SDS011;66868;42.708;23.404;2023-03-24T08:32:23;23.73;;;17.40;;
77701;SDS011;66868;42.708;23.404;2023-03-24T08:34:48;26.58;;;18.50;;
77701;SDS011;66868;42.708;23.404;2023-03-24T08:37:14;31.98;;;17.42;;
77701;SDS011;66868;42.708;23.404;2023-03-24T08:39:39;35.63;;;19.00;;
77701;SDS011;66868;42.708;23.404;2023-03-24T08:42:05;34.92;;;19.20;;
77701;SDS011;66868;42.708;23.404;2023-03-24T08:44:30;30.02;;;19.00;;
77701;SDS011;66868;42.708;23.404;2023-03-24T08:46:56;32.90;;;17.30;;
77701;SDS011;66868;42.708;23.404;2023-03-24T08:49:21;32.80;;;17.65;;
77701;SDS011;66868;42.708;23.404;2023-03-24T08:51:46;28.80;;;17.55;;
77701;SDS011;66868;42.708;23.404;2023-03-24T08:54:12;31.33;;;18.13;;
77701;SDS011;66868;42.708;23.404;2023-03-24T08:56:38;24.83;;;17.17;;
77701;SDS011;66868;42.708;23.404;2023-03-24T08:59:03;27.27;;;16.25;;
77701;SDS011;66868;42.708;23.404;2023-03-24T09:01:32;26.08;;;16.48;;
77701;SDS011;66868;42.708;23.404;2023-03-24T09:04:04;30.45;;;15.50;;
77701;SDS011;66868;42.708;23.404;2023-03-24T09:06:30;22.98;;;15.13;;
77701;SDS011;66868;42.708;23.404;2023-03-24T09:08:56;23.48;;;14.15;;
77701;SDS011;66868;42.708;23.404;2023-03-24T09:11:22;20.80;;;14.98;;
77701;SDS011;66868;42.708;23.404;2023-03-24T09:13:48;25.38;;;15.38;;
77701;SDS011;66868;42.708;23.404;2023-03-24T09:16:13;24.73;;;15.13;;
77701;SDS011;66868;42.708;23.404;2023-03-24T09:18:40;20.40;;;14.60;;
77701;SDS011;66868;42.708;23.404;2023-03-24T09:21:06;19.70;;;13.32;;
77701;SDS011;66868;42.708;23.404;2023-03-24T09:23:32;20.30;;;13.90;;
77701;SDS011;66868;42.708;23.404;2023-03-24T09:25:58;26.40;;;12.98;;
77701;SDS011;66868;42.708;23.404;2023-03-24T09:28:24;13.57;;;11.70;;
77701;SDS011;66868;42.708;23.404;2023-03-24T09:30:50;29.15;;;11.50;;
77701;SDS011;66868;42.708;23.404;2023-03-24T09:33:20;26.33;;;11.25;;
77701;SDS011;66868;42.708;23.404;2023-03-24T09:35:48;12.20;;;10.00;;
77701;SDS011;66868;42.708;23.404;2023-03-24T09:38:17;15.13;;;10.82;;
77701;SDS011;66868;42.708;23.404;2023-03-24T09:40:43;18.08;;;10.70;;
77701;SDS011;66868;42.708;23.404;2023-03-24T09:43:24;14.25;;;10.95;;
77701;SDS011;66868;42.708;23.404;2023-03-24T09:46:18;15.57;;;10.55;;
77701;SDS011;66868;42.708;23.404;2023-03-24T09:48:59;17.73;;;11.90;;
77701;SDS011;66868;42.708;23.404;2023-03-24T09:51:26;19.00;;;12.63;;
77701;SDS011;66868;42.708;23.404;2023-03-24T09:54:00;16.55;;;12.05;;
77701;SDS011;66868;42.708;23.404;2023-03-24T09:56:31;20.63;;;11.85;;
77701;SDS011;66868;42.708;23.404;2023-03-24T09:59:06;27.88;;;13.98;;
77701;SDS011;66868;42.708;23.404;2023-03-24T10:01:40;25.25;;;13.38;;
77701;SDS011;66868;42.708;23.404;2023-03-24T10:04:09;17.55;;;13.30;;
77701;SDS011;66868;42.708;23.404;2023-03-24T10:06:39;20.17;;;12.73;;
77701;SDS011;66868;42.708;23.404;2023-03-24T10:14:21;20.42;;;13.25;;
77701;SDS011;66868;42.708;23.404;2023-03-24T10:16:49;25.50;;;13.40;;
77701;SDS011;66868;42.708;23.404;2023-03-24T10:24:51;18.42;;;13.18;;
77701;SDS011;66868;42.708;23.404;2023-03-24T10:27:41;29.90;;;13.02;;
77701;SDS011;66868;42.708;23.404;2023-03-24T10:30:16;18.42;;;12.15;;
77701;SDS011;66868;42.708;23.404;2023-03-24T10:32:45;18.27;;;12.90;;
77701;SDS011;66868;42.708;23.404;2023-03-24T10:35:18;35.35;;;13.90;;
77701;SDS011;66868;42.708;23.404;2023-03-24T10:37:58;22.13;;;11.32;;
77701;SDS011;66868;42.708;23.404;2023-03-24T10:40:28;14.18;;;10.27;;
77701;SDS011;66868;42.708;23.404;2023-03-24T10:42:56;16.95;;;10.88;;
77701;SDS011;66868;42.708;23.404;2023-03-24T10:45:32;15.23;;;10.52;;
77701;SDS011;66868;42.708;23.404;2023-03-24T10:48:00;12.48;;;8.80;;
77701;SDS011;66868;42.708;23.404;2023-03-24T10:50:28;12.05;;;9.32;;
77701;SDS011;66868;42.708;23.404;2023-03-24T10:52:56;12.23;;;9.10;;
77701;SDS011;66868;42.708;23.404;2023-03-24T10:55:34;9.95;;;8.45;;
77701;SDS011;66868;42.708;23.404;2023-03-24T10:58:03;19.88;;;8.57;;
77701;SDS011;66868;42.708;23.404;2023-03-24T11:00:37;9.75;;;6.75;;
77701;SDS011;66868;42.708;23.404;2023-03-24T11:03:14;15.10;;;7.22;;
77701;SDS011;66868;42.708;23.404;2023-03-24T11:05:44;16.48;;;8.55;;
77701;SDS011;66868;42.708;23.404;2023-03-24T11:11:13;7.93;;;6.65;;
77701;SDS011;66868;42.708;23.404;2023-03-24T11:13:38;14.18;;;6.63;;
77701;SDS011;66868;42.708;23.404;2023-03-24T11:21:26;16.75;;;5.90;;
77701;SDS011;66868;42.708;23.404;2023-03-24T11:23:55;18.67;;;6.63;;
77701;SDS011;66868;42.708;23.404;2023-03-24T11:26:30;21.85;;;4.68;;
77701;SDS011;66868;42.708;23.404;2023-03-24T11:29:00;5.25;;;4.10;;
77701;SDS011;66868;42.708;23.404;2023-03-24T11:31:29;7.45;;;4.57;;
77701;SDS011;66868;42.708;23.404;2023-03-24T11:41:37;8.07;;;4.95;;
77701;SDS011;66868;42.708;23.404;2023-03-24T11:44:18;14.15;;;5.95;;
77701;SDS011;66868;42.708;23.404;2023-03-24T11:46:47;6.03;;;5.50;;
77701;SDS011;66868;42.708;23.404;2023-03-24T11:49:18;13.05;;;5.50;;
77701;SDS011;66868;42.708;23.404;2023-03-24T11:51:48;8.57;;;4.75;;
77701;SDS011;66868;42.708;23.404;2023-03-24T11:54:17;10.95;;;5.63;;
77701;SDS011;66868;42.708;23.404;2023-03-24T11:56:45;9.45;;;5.13;;
77701;SDS011;66868;42.708;23.404;2023-03-24T12:02:17;10.38;;;4.50;;
77701;SDS011;66868;42.708;23.404;2023-03-24T12:13:15;17.27;;;4.95;;
77701;SDS011;66868;42.708;23.404;2023-03-24T12:15:50;4.13;;;3.80;;
77701;SDS011;66868;42.708;23.404;2023-03-24T12:18:22;4.13;;;3.42;;
77701;SDS011;66868;42.708;23.404;2023-03-24T12:23:35;3.70;;;3.50;;
77701;SDS011;66868;42.708;23.404;2023-03-24T12:26:19;3.88;;;3.50;;
77701;SDS011;66868;42.708;23.404;2023-03-24T12:42:45;4.10;;;3.13;;
77701;SDS011;66868;42.708;23.404;2023-03-24T12:53:06;5.43;;;2.60;;
77701;SDS011;66868;42.708;23.404;2023-03-24T12:55:51;3.53;;;2.33;;
77701;SDS011;66868;42.708;23.404;2023-03-24T13:04:19;7.32;;;2.80;;
77701;SDS011;66868;42.708;23.404;2023-03-24T13:06:47;2.53;;;2.38;;
77701;SDS011;66868;42.708;23.404;2023-03-24T13:15:22;3.13;;;2.83;;
77701;SDS011;66868;42.708;23.404;2023-03-24T13:17:50;2.30;;;2.20;;
77701;SDS011;66868;42.708;23.404;2023-03-24T13:20:27;2.42;;;2.30;;
77701;SDS011;66868;42.708;23.404;2023-03-24T13:22:57;2.25;;;2.15;;
77701;SDS011;66868;42.708;23.404;2023-03-24T13:25:31;2.75;;;2.05;;
77701;SDS011;66868;42.708;23.404;2023-03-24T13:28:06;3.33;;;2.20;;
77701;SDS011;66868;42.708;23.404;2023-03-24T13:30:38;2.97;;;2.08;;
77701;SDS011;66868;42.708;23.404;2023-03-24T13:33:10;2.95;;;1.92;;
77701;SDS011;66868;42.708;23.404;2023-03-24T13:38:52;4.35;;;1.92;;
77701;SDS011;66868;42.708;23.404;2023-03-24T13:41:22;2.95;;;2.05;;
77701;SDS011;66868;42.708;23.404;2023-03-24T13:43:58;2.15;;;2.05;;
77701;SDS011;66868;42.708;23.404;2023-03-24T13:46:26;1.95;;;1.85;;
77701;SDS011;66868;42.708;23.404;2023-03-24T13:48:53;2.05;;;1.95;;
77701;SDS011;66868;42.708;23.404;2023-03-24T13:51:23;1.70;;;1.58;;
77701;SDS011;66868;42.708;23.404;2023-03-24T13:53:52;2.03;;;1.80;;
77701;SDS011;66868;42.708;23.404;2023-03-24T14:01:38;1.60;;;1.50;;
77701;SDS011;66868;42.708;23.404;2023-03-24T14:09:18;1.90;;;1.80;;
77701;SDS011;66868;42.708;23.404;2023-03-24T14:11:48;4.97;;;2.05;;
77701;SDS011;66868;42.708;23.404;2023-03-24T14:14:34;2.13;;;2.03;;
77701;SDS011;66868;42.708;23.404;2023-03-24T14:19:42;2.88;;;2.00;;
77701;SDS011;66868;42.708;23.404;2023-03-24T14:22:31;2.72;;;1.73;;
77701;SDS011;66868;42.708;23.404;2023-03-24T14:25:02;2.08;;;1.95;;
77701;SDS011;66868;42.708;23.404;2023-03-24T14:27:43;2.95;;;2.20;;
77701;SDS011;66868;42.708;23.404;2023-03-24T14:32:46;2.45;;;2.08;;
77701;SDS011;66868;42.708;23.404;2023-03-24T14:35:19;7.50;;;2.20;;
77701;SDS011;66868;42.708;23.404;2023-03-24T14:37:48;5.95;;;2.35;;
77701;SDS011;66868;42.708;23.404;2023-03-24T14:43:27;5.35;;;2.22;;
77701;SDS011;66868;42.708;23.404;2023-03-24T14:50:52;5.00;;;2.20;;
77701;SDS011;66868;42.708;23.404;2023-03-24T14:53:19;4.30;;;2.10;;
77701;SDS011;66868;42.708;23.404;2023-03-24T14:55:46;9.27;;;2.20;;
77701;SDS011;66868;42.708;23.404;2023-03-24T14:58:21;10.80;;;4.82;;
77701;SDS011;66868;42.708;23.404;2023-03-24T15:00:53;13.13;;;2.92;;
77701;SDS011;66868;42.708;23.404;2023-03-24T15:06:12;3.00;;;2.75;;
77701;SDS011;66868;42.708;23.404;2023-03-24T15:08:37;3.08;;;2.30;;
77701;SDS011;66868;42.708;23.404;2023-03-24T15:11:04;2.75;;;2.58;;
77701;SDS011;66868;42.708;23.404;2023-03-24T15:13:46;3.25;;;2.80;;
77701;SDS011;66868;42.708;23.404;2023-03-24T15:16:21;7.43;;;2.90;;
77701;SDS011;66868;42.708;23.404;2023-03-24T15:18:53;13.80;;;3.45;;
77701;SDS011;66868;42.708;23.404;2023-03-24T15:21:21;11.18;;;3.38;;
77701;SDS011;66868;42.708;23.404;2023-03-24T15:23:47;3.72;;;3.00;;
77701;SDS011;66868;42.708;23.404;2023-03-24T15:26:13;3.83;;;3.28;;
77701;SDS011;66868;42.708;23.404;2023-03-24T15:28:40;7.15;;;4.28;;
77701;SDS011;66868;42.708;23.404;2023-03-24T15:31:05;6.78;;;3.65;;
77701;SDS011;66868;42.708;23.404;2023-03-24T15:33:39;13.15;;;3.25;;
77701;SDS011;66868;42.708;23.404;2023-03-24T15:36:12;8.70;;;4.05;;
77701;SDS011;66868;42.708;23.404;2023-03-24T15:38:44;13.07;;;4.70;;
77701;SDS011;66868;42.708;23.404;2023-03-24T15:41:11;12.27;;;4.97;;
77701;SDS011;66868;42.708;23.404;2023-03-24T15:43:44;7.43;;;4.28;;
77701;SDS011;66868;42.708;23.404;2023-03-24T15:46:27;18.17;;;4.43;;
77701;SDS011;66868;42.708;23.404;2023-03-24T15:48:55;9.77;;;5.53;;
77701;SDS011;66868;42.708;23.404;2023-03-24T15:54:20;21.13;;;5.20;;
77701;SDS011;66868;42.708;23.404;2023-03-24T15:59:50;40.72;;;6.03;;
77701;SDS011;66868;42.708;23.404;2023-03-24T16:04:52;6.80;;;4.72;;
77701;SDS011;66868;42.708;23.404;2023-03-24T16:07:24;9.60;;;6.60;;
77701;SDS011;66868;42.708;23.404;2023-03-24T16:09:55;24.08;;;13.10;;
77701;SDS011;66868;42.708;23.404;2023-03-24T16:12:26;42.90;;;16.42;;
77701;SDS011;66868;42.708;23.404;2023-03-24T16:14:52;36.03;;;17.58;;
77701;SDS011;66868;42.708;23.404;2023-03-24T16:17:17;7.53;;;6.07;;
77701;SDS011;66868;42.708;23.404;2023-03-24T16:19:42;9.20;;;3.75;;
77701;SDS011;66868;42.708;23.404;2023-03-24T16:22:09;11.00;;;4.90;;
77701;SDS011;66868;42.708;23.404;2023-03-24T16:24:35;13.43;;;6.25;;
77701;SDS011;66868;42.708;23.404;2023-03-24T16:27:01;23.02;;;5.78;;
77701;SDS011;66868;42.708;23.404;2023-03-24T16:29:26;26.58;;;5.70;;
77701;SDS011;66868;42.708;23.404;2023-03-24T16:31:52;21.20;;;5.38;;
77701;SDS011;66868;42.708;23.404;2023-03-24T16:34:20;9.70;;;4.57;;
77701;SDS011;66868;42.708;23.404;2023-03-24T16:36:50;27.52;;;5.03;;
77701;SDS011;66868;42.708;23.404;2023-03-24T16:39:21;15.25;;;5.43;;
77701;SDS011;66868;42.708;23.404;2023-03-24T16:41:48;7.78;;;4.20;;
77701;SDS011;66868;42.708;23.404;2023-03-24T16:44:14;11.98;;;4.25;;
77701;SDS011;66868;42.708;23.404;2023-03-24T16:46:41;6.90;;;3.97;;
77701;SDS011;66868;42.708;23.404;2023-03-24T16:49:10;10.07;;;4.00;;
77701;SDS011;66868;42.708;23.404;2023-03-24T16:51:37;16.13;;;4.55;;
77701;SDS011;66868;42.708;23.404;2023-03-24T16:54:03;30.85;;;5.88;;
77701;SDS011;66868;42.708;23.404;2023-03-24T16:56:29;7.30;;;4.47;;
77701;SDS011;66868;42.708;23.404;2023-03-24T16:58:55;11.38;;;4.65;;
77701;SDS011;66868;42.708;23.404;2023-03-24T17:01:28;20.60;;;7.10;;
77701;SDS011;66868;42.708;23.404;2023-03-24T17:04:00;42.35;;;9.77;;
77701;SDS011;66868;42.708;23.404;2023-03-24T17:06:29;19.92;;;8.07;;
77701;SDS011;66868;42.708;23.404;2023-03-24T17:08:56;16.30;;;7.13;;
77701;SDS011;66868;42.708;23.404;2023-03-24T17:11:26;27.25;;;7.05;;
77701;SDS011;66868;42.708;23.404;2023-03-24T17:13:52;11.98;;;5.93;;
77701;SDS011;66868;42.708;23.404;2023-03-24T17:16:18;13.73;;;6.90;;
77701;SDS011;66868;42.708;23.404;2023-03-24T17:18:44;12.65;;;7.00;;
77701;SDS011;66868;42.708;23.404;2023-03-24T17:21:14;12.75;;;8.10;;
77701;SDS011;66868;42.708;23.404;2023-03-24T17:23:44;17.30;;;8.85;;
77701;SDS011;66868;42.708;23.404;2023-03-24T17:26:13;18.23;;;10.50;;
77701;SDS011;66868;42.708;23.404;2023-03-24T17:28:39;12.88;;;9.70;;